sensor_id;sensor_type;location;lat;lon;timestamp;P1;durP1;ratioP1;P2;durP2;ratioP2
25870;SDS011;13689;48.590;7.752;2022-08-04T00:01:44;2.50;;;1.45;;
25870;SDS011;13689;48.590;7.752;2022-08-04T00:09:34;1.92;;;1.45;;
25870;SDS011;13689;48.590;7.752;2022-08-04T00:12:07;3.85;;;1.25;;
25870;SDS011;13689;48.590;7.752;2022-08-04T00:14:36;2.22;;;1.38;;
25870;SDS011;13689;48.590;7.752;2022-08-04T00:17:10;1.45;;;1.13;;
25870;SDS011;13689;48.590;7.752;2022-08-04T00:19:40;2.25;;;1.60;;
25870;SDS011;13689;48.590;7.752;2022-08-04T00:22:09;2.45;;;1.45;;
25870;SDS011;13689;48.590;7.752;2022-08-04T00:24:37;1.73;;;1.63;;
25870;SDS011;13689;48.590;7.752;2022-08-04T00:27:03;3.95;;;1.30;;
25870;SDS011;13689;48.590;7.752;2022-08-04T00:29:30;2.63;;;1.38;;
25870;SDS011;13689;48.590;7.752;2022-08-04T00:31:57;2.35;;;1.63;;
25870;SDS011;13689;48.590;7.752;2022-08-04T00:34:27;1.33;;;1.30;;
25870;SDS011;13689;48.590;7.752;2022-08-04T00:36:56;4.72;;;1.42;;
25870;SDS011;13689;48.590;7.752;2022-08-04T00:39:22;2.25;;;1.30;;
25870;SDS011;13689;48.590;7.752;2022-08-04T00:47:21;1.42;;;1.30;;
25870;SDS011;13689;48.590;7.752;2022-08-04T00:52:26;3.20;;;1.50;;
25870;SDS011;13689;48.590;7.752;2022-08-04T00:55:11;2.45;;;1.35;;
25870;SDS011;13689;48.590;7.752;2022-08-04T00:57:49;2.60;;;1.52;;
25870;SDS011;13689;48.590;7.752;2022-08-04T01:00:16;1.30;;;1.08;;
25870;SDS011;13689;48.590;7.752;2022-08-04T01:14:00;5.18;;;1.85;;
25870;SDS011;13689;48.590;7.752;2022-08-04T01:16:28;1.98;;;1.42;;
25870;SDS011;13689;48.590;7.752;2022-08-04T01:18:58;1.38;;;1.27;;
25870;SDS011;13689;48.590;7.752;2022-08-04T01:26:42;2.25;;;1.35;;
25870;SDS011;13689;48.590;7.752;2022-08-04T01:29:16;1.65;;;1.50;;
25870;SDS011;13689;48.590;7.752;2022-08-04T01:34:18;3.13;;;1.48;;
25870;SDS011;13689;48.590;7.752;2022-08-04T01:36:45;1.90;;;1.50;;
25870;SDS011;13689;48.590;7.752;2022-08-04T01:39:16;3.53;;;1.55;;
25870;SDS011;13689;48.590;7.752;2022-08-04T01:42:03;5.65;;;1.67;;
25870;SDS011;13689;48.590;7.752;2022-08-04T01:44:30;5.93;;;1.38;;
25870;SDS011;13689;48.590;7.752;2022-08-04T01:47:00;4.15;;;1.65;;
25870;SDS011;13689;48.590;7.752;2022-08-04T01:49:27;4.45;;;1.73;;
25870;SDS011;13689;48.590;7.752;2022-08-04T01:51:55;1.85;;;1.33;;
25870;SDS011;13689;48.590;7.752;2022-08-04T01:54:21;3.35;;;1.65;;
25870;SDS011;13689;48.590;7.752;2022-08-04T01:56:48;3.88;;;2.22;;
25870;SDS011;13689;48.590;7.752;2022-08-04T01:59:17;9.27;;;3.80;;
25870;SDS011;13689;48.590;7.752;2022-08-04T02:01:43;8.80;;;4.13;;
25870;SDS011;13689;48.590;7.752;2022-08-04T02:04:19;4.85;;;3.40;;
25870;SDS011;13689;48.590;7.752;2022-08-04T02:09:15;17.02;;;6.82;;
25870;SDS011;13689;48.590;7.752;2022-08-04T02:11:48;17.73;;;7.32;;
25870;SDS011;13689;48.590;7.752;2022-08-04T02:14:39;12.60;;;6.30;;
25870;SDS011;13689;48.590;7.752;2022-08-04T02:17:23;14.40;;;7.80;;
25870;SDS011;13689;48.590;7.752;2022-08-04T02:22:59;12.40;;;6.70;;
25870;SDS011;13689;48.590;7.752;2022-08-04T02:26:19;13.70;;;7.07;;
25870;SDS011;13689;48.590;7.752;2022-08-04T02:33:39;8.05;;;5.13;;
25870;SDS011;13689;48.590;7.752;2022-08-04T02:36:08;7.47;;;4.15;;
25870;SDS011;13689;48.590;7.752;2022-08-04T02:41:18;8.70;;;4.03;;
25870;SDS011;13689;48.590;7.752;2022-08-04T02:43:47;7.30;;;4.18;;
25870;SDS011;13689;48.590;7.752;2022-08-04T02:46:17;7.68;;;4.57;;
25870;SDS011;13689;48.590;7.752;2022-08-04T02:48:47;7.30;;;4.35;;
25870;SDS011;13689;48.590;7.752;2022-08-04T02:51:15;6.28;;;4.28;;
25870;SDS011;13689;48.590;7.752;2022-08-04T02:53:44;5.13;;;3.17;;
25870;SDS011;13689;48.590;7.752;2022-08-04T02:56:11;3.35;;;2.95;;
25870;SDS011;13689;48.590;7.752;2022-08-04T02:58:42;4.20;;;2.80;;
25870;SDS011;13689;48.590;7.752;2022-08-04T03:01:15;3.47;;;2.00;;
25870;SDS011;13689;48.590;7.752;2022-08-04T03:03:52;2.42;;;2.13;;
25870;SDS011;13689;48.590;7.752;2022-08-04T03:37:02;2.33;;;1.80;;
25870;SDS011;13689;48.590;7.752;2022-08-04T03:48:29;9.32;;;2.00;;
25870;SDS011;13689;48.590;7.752;2022-08-04T03:51:37;3.33;;;1.80;;
25870;SDS011;13689;48.590;7.752;2022-08-04T04:08:50;3.53;;;1.88;;
25870;SDS011;13689;48.590;7.752;2022-08-04T04:17:44;2.25;;;1.60;;
25870;SDS011;13689;48.590;7.752;2022-08-04T04:23:26;3.05;;;1.42;;
25870;SDS011;13689;48.590;7.752;2022-08-04T04:28:57;4.78;;;1.50;;
25870;SDS011;13689;48.590;7.752;2022-08-04T04:39:41;5.85;;;1.80;;
25870;SDS011;13689;48.590;7.752;2022-08-04T04:45:14;1.88;;;1.70;;
25870;SDS011;13689;48.590;7.752;2022-08-04T04:53:10;4.20;;;1.50;;
25870;SDS011;13689;48.590;7.752;2022-08-04T04:55:55;1.73;;;1.63;;
25870;SDS011;13689;48.590;7.752;2022-08-04T04:58:32;2.30;;;1.85;;
25870;SDS011;13689;48.590;7.752;2022-08-04T05:14:34;5.53;;;1.73;;
25870;SDS011;13689;48.590;7.752;2022-08-04T05:17:14;5.90;;;2.00;;
25870;SDS011;13689;48.590;7.752;2022-08-04T05:20:03;2.63;;;1.80;;
25870;SDS011;13689;48.590;7.752;2022-08-04T05:23:01;5.28;;;2.17;;
25870;SDS011;13689;48.590;7.752;2022-08-04T05:25:40;3.30;;;2.15;;
25870;SDS011;13689;48.590;7.752;2022-08-04T05:28:21;2.47;;;2.00;;
25870;SDS011;13689;48.590;7.752;2022-08-04T05:30:56;2.13;;;1.80;;
25870;SDS011;13689;48.590;7.752;2022-08-04T05:33:26;1.95;;;1.75;;
25870;SDS011;13689;48.590;7.752;2022-08-04T05:35:58;5.25;;;1.90;;
25870;SDS011;13689;48.590;7.752;2022-08-04T05:38:28;2.38;;;1.60;;
25870;SDS011;13689;48.590;7.752;2022-08-04T05:41:05;1.77;;;1.48;;
25870;SDS011;13689;48.590;7.752;2022-08-04T05:43:33;2.20;;;1.80;;
25870;SDS011;13689;48.590;7.752;2022-08-04T05:46:01;5.65;;;1.65;;
25870;SDS011;13689;48.590;7.752;2022-08-04T05:48:28;2.73;;;1.87;;
25870;SDS011;13689;48.590;7.752;2022-08-04T05:50:56;4.90;;;2.10;;
25870;SDS011;13689;48.590;7.752;2022-08-04T05:55:49;2.25;;;1.80;;
25870;SDS011;13689;48.590;7.752;2022-08-04T05:58:16;5.30;;;1.63;;
25870;SDS011;13689;48.590;7.752;2022-08-04T06:00:43;3.22;;;1.80;;
25870;SDS011;13689;48.590;7.752;2022-08-04T06:03:10;4.50;;;1.70;;
25870;SDS011;13689;48.590;7.752;2022-08-04T06:05:37;4.50;;;1.65;;
25870;SDS011;13689;48.590;7.752;2022-08-04T06:08:06;4.32;;;2.13;;
25870;SDS011;13689;48.590;7.752;2022-08-04T06:10:31;3.63;;;1.80;;
25870;SDS011;13689;48.590;7.752;2022-08-04T06:13:02;2.22;;;1.58;;
25870;SDS011;13689;48.590;7.752;2022-08-04T06:15:34;3.15;;;2.05;;
25870;SDS011;13689;48.590;7.752;2022-08-04T06:18:03;1.90;;;1.67;;
25870;SDS011;13689;48.590;7.752;2022-08-04T06:20:32;2.85;;;1.48;;
25870;SDS011;13689;48.590;7.752;2022-08-04T06:23:01;1.98;;;1.40;;
25870;SDS011;13689;48.590;7.752;2022-08-04T06:25:30;2.38;;;1.42;;
25870;SDS011;13689;48.590;7.752;2022-08-04T06:27:57;3.67;;;1.88;;
25870;SDS011;13689;48.590;7.752;2022-08-04T06:30:25;2.20;;;1.50;;
25870;SDS011;13689;48.590;7.752;2022-08-04T06:32:54;1.40;;;1.27;;
25870;SDS011;13689;48.590;7.752;2022-08-04T06:35:22;2.40;;;1.63;;
25870;SDS011;13689;48.590;7.752;2022-08-04T06:37:50;3.40;;;1.40;;
25870;SDS011;13689;48.590;7.752;2022-08-04T06:40:17;2.25;;;1.60;;
25870;SDS011;13689;48.590;7.752;2022-08-04T06:42:46;2.92;;;1.50;;
25870;SDS011;13689;48.590;7.752;2022-08-04T06:45:13;2.60;;;1.40;;
25870;SDS011;13689;48.590;7.752;2022-08-04T06:47:39;4.22;;;1.48;;
25870;SDS011;13689;48.590;7.752;2022-08-04T06:50:07;1.38;;;1.27;;
25870;SDS011;13689;48.590;7.752;2022-08-04T06:52:34;4.93;;;1.35;;
25870;SDS011;13689;48.590;7.752;2022-08-04T06:55:00;1.50;;;1.40;;
25870;SDS011;13689;48.590;7.752;2022-08-04T06:57:27;3.15;;;1.27;;
25870;SDS011;13689;48.590;7.752;2022-08-04T06:59:58;6.15;;;1.33;;
25870;SDS011;13689;48.590;7.752;2022-08-04T07:02:28;1.58;;;1.38;;
25870;SDS011;13689;48.590;7.752;2022-08-04T07:04:57;1.60;;;1.50;;
25870;SDS011;13689;48.590;7.752;2022-08-04T07:07:23;4.28;;;1.50;;
25870;SDS011;13689;48.590;7.752;2022-08-04T07:09:49;4.20;;;1.50;;
25870;SDS011;13689;48.590;7.752;2022-08-04T07:12:16;4.55;;;1.40;;
25870;SDS011;13689;48.590;7.752;2022-08-04T07:14:45;1.42;;;1.33;;
25870;SDS011;13689;48.590;7.752;2022-08-04T07:17:12;4.03;;;1.60;;
25870;SDS011;13689;48.590;7.752;2022-08-04T07:19:40;3.35;;;1.27;;
25870;SDS011;13689;48.590;7.752;2022-08-04T07:22:08;2.20;;;1.50;;
25870;SDS011;13689;48.590;7.752;2022-08-04T07:24:35;3.35;;;1.50;;
25870;SDS011;13689;48.590;7.752;2022-08-04T07:27:02;2.92;;;1.52;;
25870;SDS011;13689;48.590;7.752;2022-08-04T07:29:30;2.33;;;1.60;;
25870;SDS011;13689;48.590;7.752;2022-08-04T07:31:57;2.35;;;1.25;;
25870;SDS011;13689;48.590;7.752;2022-08-04T07:34:25;4.30;;;1.42;;
25870;SDS011;13689;48.590;7.752;2022-08-04T07:36:52;5.45;;;1.27;;
25870;SDS011;13689;48.590;7.752;2022-08-04T07:39:19;4.38;;;1.50;;
25870;SDS011;13689;48.590;7.752;2022-08-04T07:44:12;1.85;;;1.35;;
25870;SDS011;13689;48.590;7.752;2022-08-04T07:49:05;4.72;;;1.40;;
25870;SDS011;13689;48.590;7.752;2022-08-04T07:51:32;3.45;;;1.45;;
25870;SDS011;13689;48.590;7.752;2022-08-04T07:53:59;2.20;;;1.50;;
25870;SDS011;13689;48.590;7.752;2022-08-04T07:56:29;5.57;;;1.27;;
25870;SDS011;13689;48.590;7.752;2022-08-04T07:58:56;1.70;;;1.30;;
25870;SDS011;13689;48.590;7.752;2022-08-04T08:01:23;2.92;;;1.40;;
25870;SDS011;13689;48.590;7.752;2022-08-04T08:03:50;1.38;;;1.15;;
25870;SDS011;13689;48.590;7.752;2022-08-04T08:06:17;2.10;;;1.30;;
25870;SDS011;13689;48.590;7.752;2022-08-04T08:08:43;1.35;;;1.23;;
25870;SDS011;13689;48.590;7.752;2022-08-04T08:11:09;10.77;;;1.35;;
25870;SDS011;13689;48.590;7.752;2022-08-04T08:13:35;2.03;;;1.52;;
25870;SDS011;13689;48.590;7.752;2022-08-04T08:16:01;4.20;;;1.30;;
25870;SDS011;13689;48.590;7.752;2022-08-04T08:18:28;2.65;;;1.40;;
25870;SDS011;13689;48.590;7.752;2022-08-04T08:20:54;2.90;;;1.48;;
25870;SDS011;13689;48.590;7.752;2022-08-04T08:23:20;2.73;;;1.70;;
25870;SDS011;13689;48.590;7.752;2022-08-04T08:25:46;1.98;;;1.80;;
25870;SDS011;13689;48.590;7.752;2022-08-04T08:28:13;2.15;;;1.55;;
25870;SDS011;13689;48.590;7.752;2022-08-04T08:30:40;2.33;;;1.40;;
25870;SDS011;13689;48.590;7.752;2022-08-04T08:33:07;5.97;;;1.50;;
25870;SDS011;13689;48.590;7.752;2022-08-04T08:35:55;3.10;;;1.67;;
25870;SDS011;13689;48.590;7.752;2022-08-04T08:38:32;5.00;;;1.88;;
25870;SDS011;13689;48.590;7.752;2022-08-04T08:41:12;3.22;;;1.42;;
25870;SDS011;13689;48.590;7.752;2022-08-04T08:43:44;1.55;;;1.45;;
25870;SDS011;13689;48.590;7.752;2022-08-04T08:57:28;4.35;;;1.92;;
25870;SDS011;13689;48.590;7.752;2022-08-04T09:00:25;2.60;;;1.42;;
25870;SDS011;13689;48.590;7.752;2022-08-04T09:06:10;5.13;;;1.60;;
25870;SDS011;13689;48.590;7.752;2022-08-04T09:12:03;1.58;;;1.20;;
25870;SDS011;13689;48.590;7.752;2022-08-04T09:14:53;1.50;;;1.33;;
25870;SDS011;13689;48.590;7.752;2022-08-04T09:17:44;2.63;;;1.13;;
25870;SDS011;13689;48.590;7.752;2022-08-04T09:23:19;1.00;;;1.00;;
25870;SDS011;13689;48.590;7.752;2022-08-04T09:25:57;14.30;;;1.30;;
25870;SDS011;13689;48.590;7.752;2022-08-04T09:28:28;1.75;;;1.65;;
25870;SDS011;13689;48.590;7.752;2022-08-04T09:31:06;3.95;;;1.50;;
25870;SDS011;13689;48.590;7.752;2022-08-04T09:33:47;2.30;;;1.30;;
25870;SDS011;13689;48.590;7.752;2022-08-04T09:47:29;5.25;;;1.50;;
25870;SDS011;13689;48.590;7.752;2022-08-04T09:55:54;3.65;;;1.33;;
25870;SDS011;13689;48.590;7.752;2022-08-04T10:01:03;2.60;;;1.25;;
25870;SDS011;13689;48.590;7.752;2022-08-04T10:03:34;3.95;;;1.30;;
25870;SDS011;13689;48.590;7.752;2022-08-04T10:06:07;2.30;;;1.25;;
25870;SDS011;13689;48.590;7.752;2022-08-04T10:08:55;3.85;;;1.50;;
25870;SDS011;13689;48.590;7.752;2022-08-04T10:20:03;1.33;;;1.00;;
25870;SDS011;13689;48.590;7.752;2022-08-04T10:22:36;5.88;;;1.15;;
25870;SDS011;13689;48.590;7.752;2022-08-04T10:25:16;1.75;;;1.20;;
25870;SDS011;13689;48.590;7.752;2022-08-04T10:27:56;0.90;;;0.90;;
25870;SDS011;13689;48.590;7.752;2022-08-04T10:30:30;1.23;;;1.05;;
25870;SDS011;13689;48.590;7.752;2022-08-04T10:33:08;1.40;;;1.08;;
25870;SDS011;13689;48.590;7.752;2022-08-04T10:35:45;1.92;;;1.00;;
25870;SDS011;13689;48.590;7.752;2022-08-04T10:54:09;2.10;;;0.88;;
25870;SDS011;13689;48.590;7.752;2022-08-04T10:56:40;0.80;;;0.80;;
25870;SDS011;13689;48.590;7.752;2022-08-04T10:59:11;1.17;;;0.77;;
25870;SDS011;13689;48.590;7.752;2022-08-04T11:01:47;0.90;;;0.90;;
25870;SDS011;13689;48.590;7.752;2022-08-04T11:04:22;1.02;;;0.93;;
25870;SDS011;13689;48.590;7.752;2022-08-04T11:07:01;4.00;;;1.20;;
25870;SDS011;13689;48.590;7.752;2022-08-04T11:09:27;0.70;;;0.70;;
25870;SDS011;13689;48.590;7.752;2022-08-04T11:11:57;2.67;;;0.98;;
25870;SDS011;13689;48.590;7.752;2022-08-04T11:14:39;0.98;;;0.93;;
25870;SDS011;13689;48.590;7.752;2022-08-04T11:17:30;1.27;;;1.00;;
25870;SDS011;13689;48.590;7.752;2022-08-04T11:20:22;4.68;;;0.82;;
25870;SDS011;13689;48.590;7.752;2022-08-04T11:23:02;1.48;;;0.85;;
25870;SDS011;13689;48.590;7.752;2022-08-04T11:25:38;1.02;;;0.90;;
25870;SDS011;13689;48.590;7.752;2022-08-04T11:31:15;1.42;;;0.80;;
25870;SDS011;13689;48.590;7.752;2022-08-04T11:36:29;0.98;;;0.88;;
25870;SDS011;13689;48.590;7.752;2022-08-04T11:39:07;1.02;;;0.98;;
25870;SDS011;13689;48.590;7.752;2022-08-04T11:44:05;3.28;;;0.85;;
25870;SDS011;13689;48.590;7.752;2022-08-04T11:46:43;1.15;;;0.70;;
25870;SDS011;13689;48.590;7.752;2022-08-04T11:51:59;1.77;;;0.73;;
25870;SDS011;13689;48.590;7.752;2022-08-04T11:54:27;0.93;;;0.90;;
25870;SDS011;13689;48.590;7.752;2022-08-04T11:56:54;0.80;;;0.80;;
25870;SDS011;13689;48.590;7.752;2022-08-04T11:59:21;2.33;;;0.60;;
25870;SDS011;13689;48.590;7.752;2022-08-04T12:13:40;2.17;;;0.57;;
25870;SDS011;13689;48.590;7.752;2022-08-04T12:16:28;0.80;;;0.80;;
25870;SDS011;13689;48.590;7.752;2022-08-04T12:19:12;1.15;;;1.05;;
25870;SDS011;13689;48.590;7.752;2022-08-04T12:21:47;1.58;;;0.98;;
25870;SDS011;13689;48.590;7.752;2022-08-04T12:24:19;5.18;;;0.70;;
25870;SDS011;13689;48.590;7.752;2022-08-04T12:26:49;1.25;;;0.82;;
25870;SDS011;13689;48.590;7.752;2022-08-04T12:29:21;0.68;;;0.68;;
25870;SDS011;13689;48.590;7.752;2022-08-04T12:31:50;1.33;;;0.70;;
25870;SDS011;13689;48.590;7.752;2022-08-04T12:37:03;0.98;;;0.70;;
25870;SDS011;13689;48.590;7.752;2022-08-04T12:39:37;1.10;;;0.73;;
25870;SDS011;13689;48.590;7.752;2022-08-04T12:42:17;2.60;;;0.82;;
25870;SDS011;13689;48.590;7.752;2022-08-04T12:44:51;2.17;;;0.77;;
25870;SDS011;13689;48.590;7.752;2022-08-04T12:47:21;2.17;;;0.80;;
25870;SDS011;13689;48.590;7.752;2022-08-04T12:49:49;0.80;;;0.80;;
25870;SDS011;13689;48.590;7.752;2022-08-04T12:52:17;2.95;;;0.80;;
25870;SDS011;13689;48.590;7.752;2022-08-04T12:54:44;0.82;;;0.82;;
25870;SDS011;13689;48.590;7.752;2022-08-04T12:57:15;1.20;;;1.08;;
25870;SDS011;13689;48.590;7.752;2022-08-04T12:59:42;1.00;;;0.90;;
25870;SDS011;13689;48.590;7.752;2022-08-04T13:02:11;0.70;;;0.70;;
25870;SDS011;13689;48.590;7.752;2022-08-04T13:04:42;2.40;;;0.95;;
25870;SDS011;13689;48.590;7.752;2022-08-04T13:09:37;0.85;;;0.85;;
25870;SDS011;13689;48.590;7.752;2022-08-04T13:14:39;0.93;;;0.70;;
25870;SDS011;13689;48.590;7.752;2022-08-04T13:17:08;0.73;;;0.73;;
25870;SDS011;13689;48.590;7.752;2022-08-04T13:19:35;0.93;;;0.90;;
25870;SDS011;13689;48.590;7.752;2022-08-04T13:22:01;3.15;;;0.80;;
25870;SDS011;13689;48.590;7.752;2022-08-04T13:24:27;3.15;;;0.90;;
25870;SDS011;13689;48.590;7.752;2022-08-04T13:26:58;1.30;;;0.85;;
25870;SDS011;13689;48.590;7.752;2022-08-04T13:32:01;0.82;;;0.82;;
25870;SDS011;13689;48.590;7.752;2022-08-04T13:34:29;0.95;;;0.70;;
25870;SDS011;13689;48.590;7.752;2022-08-04T13:36:56;0.70;;;0.70;;
25870;SDS011;13689;48.590;7.752;2022-08-04T13:41:50;3.13;;;0.73;;
25870;SDS011;13689;48.590;7.752;2022-08-04T13:44:19;2.70;;;0.90;;
25870;SDS011;13689;48.590;7.752;2022-08-04T13:49:38;0.95;;;0.80;;
25870;SDS011;13689;48.590;7.752;2022-08-04T13:52:05;0.80;;;0.80;;
25870;SDS011;13689;48.590;7.752;2022-08-04T13:54:44;0.73;;;0.73;;
25870;SDS011;13689;48.590;7.752;2022-08-04T13:57:13;0.80;;;0.80;;
25870;SDS011;13689;48.590;7.752;2022-08-04T13:59:43;0.93;;;0.90;;
25870;SDS011;13689;48.590;7.752;2022-08-04T14:02:29;1.23;;;1.02;;
25870;SDS011;13689;48.590;7.752;2022-08-04T14:05:04;1.13;;;1.02;;
25870;SDS011;13689;48.590;7.752;2022-08-04T14:07:39;0.85;;;0.82;;
25870;SDS011;13689;48.590;7.752;2022-08-04T14:10:10;1.65;;;0.80;;
25870;SDS011;13689;48.590;7.752;2022-08-04T14:12:46;0.60;;;0.60;;
25870;SDS011;13689;48.590;7.752;2022-08-04T14:15:28;1.67;;;0.75;;
25870;SDS011;13689;48.590;7.752;2022-08-04T14:18:15;1.00;;;0.80;;
25870;SDS011;13689;48.590;7.752;2022-08-04T14:21:02;6.00;;;1.15;;
25870;SDS011;13689;48.590;7.752;2022-08-04T14:23:39;2.45;;;0.98;;
25870;SDS011;13689;48.590;7.752;2022-08-04T14:28:44;2.25;;;1.10;;
25870;SDS011;13689;48.590;7.752;2022-08-04T14:31:10;1.90;;;0.90;;
25870;SDS011;13689;48.590;7.752;2022-08-04T14:33:39;2.92;;;1.10;;
25870;SDS011;13689;48.590;7.752;2022-08-04T14:36:06;1.58;;;1.00;;
25870;SDS011;13689;48.590;7.752;2022-08-04T14:41:26;2.88;;;1.27;;
25870;SDS011;13689;48.590;7.752;2022-08-04T14:43:55;2.55;;;1.25;;
25870;SDS011;13689;48.590;7.752;2022-08-04T14:46:23;2.85;;;1.15;;
25870;SDS011;13689;48.590;7.752;2022-08-04T14:51:37;2.03;;;1.10;;
25870;SDS011;13689;48.590;7.752;2022-08-04T14:54:06;2.88;;;0.93;;
25870;SDS011;13689;48.590;7.752;2022-08-04T14:56:33;0.93;;;0.90;;
25870;SDS011;13689;48.590;7.752;2022-08-04T14:59:01;3.40;;;1.00;;
25870;SDS011;13689;48.590;7.752;2022-08-04T15:01:31;1.70;;;1.10;;
25870;SDS011;13689;48.590;7.752;2022-08-04T15:03:57;1.70;;;1.00;;
25870;SDS011;13689;48.590;7.752;2022-08-04T15:06:26;4.40;;;0.90;;
25870;SDS011;13689;48.590;7.752;2022-08-04T15:08:53;4.28;;;0.70;;
25870;SDS011;13689;48.590;7.752;2022-08-04T15:11:21;0.80;;;0.80;;
25870;SDS011;13689;48.590;7.752;2022-08-04T15:13:47;1.10;;;0.87;;
25870;SDS011;13689;48.590;7.752;2022-08-04T15:16:13;1.02;;;0.82;;
25870;SDS011;13689;48.590;7.752;2022-08-04T15:18:39;3.15;;;1.15;;
25870;SDS011;13689;48.590;7.752;2022-08-04T15:21:06;1.40;;;0.85;;
25870;SDS011;13689;48.590;7.752;2022-08-04T15:23:32;1.30;;;1.00;;
25870;SDS011;13689;48.590;7.752;2022-08-04T15:25:59;1.70;;;0.90;;
25870;SDS011;13689;48.590;7.752;2022-08-04T15:28:28;3.22;;;0.88;;
25870;SDS011;13689;48.590;7.752;2022-08-04T15:30:57;0.80;;;0.80;;
25870;SDS011;13689;48.590;7.752;2022-08-04T15:33:27;0.80;;;0.80;;
25870;SDS011;13689;48.590;7.752;2022-08-04T15:35:54;0.80;;;0.77;;
25870;SDS011;13689;48.590;7.752;2022-08-04T15:38:58;3.17;;;0.95;;
25870;SDS011;13689;48.590;7.752;2022-08-04T15:41:43;0.77;;;0.77;;
25870;SDS011;13689;48.590;7.752;2022-08-04T15:49:23;1.02;;;0.90;;
25870;SDS011;13689;48.590;7.752;2022-08-04T15:52:09;0.75;;;0.75;;
25870;SDS011;13689;48.590;7.752;2022-08-04T15:54:37;5.63;;;2.20;;
25870;SDS011;13689;48.590;7.752;2022-08-04T15:57:04;0.80;;;0.80;;
25870;SDS011;13689;48.590;7.752;2022-08-04T15:59:54;2.13;;;1.00;;
25870;SDS011;13689;48.590;7.752;2022-08-04T16:07:54;0.88;;;0.88;;
25870;SDS011;13689;48.590;7.752;2022-08-04T16:12:57;0.90;;;0.90;;
25870;SDS011;13689;48.590;7.752;2022-08-04T16:15:41;3.05;;;1.15;;
25870;SDS011;13689;48.590;7.752;2022-08-04T16:20:44;3.00;;;0.90;;
25870;SDS011;13689;48.590;7.752;2022-08-04T16:25:51;1.88;;;0.70;;
25870;SDS011;13689;48.590;7.752;2022-08-04T16:31:04;1.00;;;0.90;;
25870;SDS011;13689;48.590;7.752;2022-08-04T16:33:31;2.05;;;0.90;;
25870;SDS011;13689;48.590;7.752;2022-08-04T16:35:58;1.20;;;0.80;;
25870;SDS011;13689;48.590;7.752;2022-08-04T16:38:25;2.22;;;1.08;;
25870;SDS011;13689;48.590;7.752;2022-08-04T16:40:56;0.98;;;0.88;;
25870;SDS011;13689;48.590;7.752;2022-08-04T16:43:26;1.70;;;0.90;;
25870;SDS011;13689;48.590;7.752;2022-08-04T16:45:56;3.55;;;1.05;;
25870;SDS011;13689;48.590;7.752;2022-08-04T16:51:07;5.18;;;1.08;;
25870;SDS011;13689;48.590;7.752;2022-08-04T16:53:37;2.05;;;1.00;;
25870;SDS011;13689;48.590;7.752;2022-08-04T16:56:08;1.42;;;0.90;;
25870;SDS011;13689;48.590;7.752;2022-08-04T16:58:35;0.77;;;0.77;;
25870;SDS011;13689;48.590;7.752;2022-08-04T17:01:11;4.57;;;0.88;;
25870;SDS011;13689;48.590;7.752;2022-08-04T17:03:40;3.33;;;0.80;;
25870;SDS011;13689;48.590;7.752;2022-08-04T17:06:14;1.10;;;0.75;;
25870;SDS011;13689;48.590;7.752;2022-08-04T17:08:40;2.75;;;1.05;;
25870;SDS011;13689;48.590;7.752;2022-08-04T17:11:06;3.25;;;0.93;;
25870;SDS011;13689;48.590;7.752;2022-08-04T17:13:44;4.68;;;1.00;;
25870;SDS011;13689;48.590;7.752;2022-08-04T17:16:12;0.82;;;0.82;;
25870;SDS011;13689;48.590;7.752;2022-08-04T17:18:41;2.63;;;0.88;;
25870;SDS011;13689;48.590;7.752;2022-08-04T17:21:11;0.88;;;0.88;;
25870;SDS011;13689;48.590;7.752;2022-08-04T17:23:44;2.50;;;1.00;;
25870;SDS011;13689;48.590;7.752;2022-08-04T17:26:17;3.03;;;0.95;;
25870;SDS011;13689;48.590;7.752;2022-08-04T17:28:46;0.80;;;0.80;;
25870;SDS011;13689;48.590;7.752;2022-08-04T17:31:14;1.20;;;1.08;;
25870;SDS011;13689;48.590;7.752;2022-08-04T17:33:45;1.17;;;0.90;;
25870;SDS011;13689;48.590;7.752;2022-08-04T17:36:13;2.92;;;1.20;;
25870;SDS011;13689;48.590;7.752;2022-08-04T17:41:10;0.85;;;0.80;;
25870;SDS011;13689;48.590;7.752;2022-08-04T17:43:40;7.65;;;1.33;;
25870;SDS011;13689;48.590;7.752;2022-08-04T17:46:14;3.00;;;0.93;;
25870;SDS011;13689;48.590;7.752;2022-08-04T17:48:59;2.13;;;1.10;;
25870;SDS011;13689;48.590;7.752;2022-08-04T17:51:40;2.58;;;0.80;;
25870;SDS011;13689;48.590;7.752;2022-08-04T17:54:19;1.38;;;1.02;;
25870;SDS011;13689;48.590;7.752;2022-08-04T17:56:53;3.20;;;1.10;;
25870;SDS011;13689;48.590;7.752;2022-08-04T17:59:24;1.00;;;0.90;;
25870;SDS011;13689;48.590;7.752;2022-08-04T18:01:58;0.80;;;0.80;;
25870;SDS011;13689;48.590;7.752;2022-08-04T18:07:18;6.45;;;1.50;;
25870;SDS011;13689;48.590;7.752;2022-08-04T18:09:52;8.20;;;6.18;;
25870;SDS011;13689;48.590;7.752;2022-08-04T18:14:48;1.92;;;1.10;;
25870;SDS011;13689;48.590;7.752;2022-08-04T18:17:29;2.33;;;1.13;;
25870;SDS011;13689;48.590;7.752;2022-08-04T18:20:04;3.47;;;1.07;;
25870;SDS011;13689;48.590;7.752;2022-08-04T18:22:33;1.52;;;1.40;;
25870;SDS011;13689;48.590;7.752;2022-08-04T18:24:59;1.30;;;1.20;;
25870;SDS011;13689;48.590;7.752;2022-08-04T18:27:26;2.80;;;1.10;;
25870;SDS011;13689;48.590;7.752;2022-08-04T18:29:54;4.68;;;1.45;;
25870;SDS011;13689;48.590;7.752;2022-08-04T18:32:21;3.47;;;1.70;;
25870;SDS011;13689;48.590;7.752;2022-08-04T18:37:15;2.88;;;1.48;;
25870;SDS011;13689;48.590;7.752;2022-08-04T18:39:41;4.88;;;1.60;;
25870;SDS011;13689;48.590;7.752;2022-08-04T18:42:06;2.75;;;1.67;;
25870;SDS011;13689;48.590;7.752;2022-08-04T18:44:35;1.95;;;1.50;;
25870;SDS011;13689;48.590;7.752;2022-08-04T18:47:01;2.42;;;1.83;;
25870;SDS011;13689;48.590;7.752;2022-08-04T18:49:28;6.72;;;1.73;;
25870;SDS011;13689;48.590;7.752;2022-08-04T18:51:54;2.65;;;2.20;;
25870;SDS011;13689;48.590;7.752;2022-08-04T18:54:20;3.10;;;2.10;;
25870;SDS011;13689;48.590;7.752;2022-08-04T18:56:48;8.38;;;1.85;;
25870;SDS011;13689;48.590;7.752;2022-08-04T18:59:24;2.80;;;1.88;;
25870;SDS011;13689;48.590;7.752;2022-08-04T19:01:50;8.93;;;2.08;;
25870;SDS011;13689;48.590;7.752;2022-08-04T19:04:18;2.13;;;1.92;;
25870;SDS011;13689;48.590;7.752;2022-08-04T19:06:44;1.13;;;1.13;;
25870;SDS011;13689;48.590;7.752;2022-08-04T19:09:09;1.58;;;1.42;;
25870;SDS011;13689;48.590;7.752;2022-08-04T19:11:35;1.38;;;1.27;;
25870;SDS011;13689;48.590;7.752;2022-08-04T19:14:01;7.25;;;1.77;;
25870;SDS011;13689;48.590;7.752;2022-08-04T19:16:28;3.42;;;1.40;;
25870;SDS011;13689;48.590;7.752;2022-08-04T19:18:55;3.97;;;1.85;;
25870;SDS011;13689;48.590;7.752;2022-08-04T19:21:25;2.72;;;1.48;;
25870;SDS011;13689;48.590;7.752;2022-08-04T19:23:51;1.60;;;1.50;;
25870;SDS011;13689;48.590;7.752;2022-08-04T19:26:18;3.23;;;1.23;;
25870;SDS011;13689;48.590;7.752;2022-08-04T19:28:44;2.08;;;1.75;;
25870;SDS011;13689;48.590;7.752;2022-08-04T19:31:09;2.15;;;1.40;;
25870;SDS011;13689;48.590;7.752;2022-08-04T19:33:36;3.30;;;1.63;;
25870;SDS011;13689;48.590;7.752;2022-08-04T19:36:03;5.63;;;1.50;;
25870;SDS011;13689;48.590;7.752;2022-08-04T19:38:30;3.15;;;1.42;;
25870;SDS011;13689;48.590;7.752;2022-08-04T19:40:57;3.10;;;1.50;;
25870;SDS011;13689;48.590;7.752;2022-08-04T19:43:22;2.30;;;1.38;;
25870;SDS011;13689;48.590;7.752;2022-08-04T19:45:48;2.70;;;1.33;;
25870;SDS011;13689;48.590;7.752;2022-08-04T19:48:14;1.35;;;1.20;;
25870;SDS011;13689;48.590;7.752;2022-08-04T19:50:40;1.45;;;1.17;;
25870;SDS011;13689;48.590;7.752;2022-08-04T19:53:05;7.45;;;1.02;;
25870;SDS011;13689;48.590;7.752;2022-08-04T19:55:31;2.85;;;1.10;;
25870;SDS011;13689;48.590;7.752;2022-08-04T19:58:00;2.63;;;1.17;;
25870;SDS011;13689;48.590;7.752;2022-08-04T20:00:27;1.75;;;1.10;;
25870;SDS011;13689;48.590;7.752;2022-08-04T20:02:54;3.05;;;1.50;;
25870;SDS011;13689;48.590;7.752;2022-08-04T20:05:19;2.45;;;1.40;;
25870;SDS011;13689;48.590;7.752;2022-08-04T20:07:45;2.05;;;1.58;;